RSC92V GCXO-GCLP
Flight info
| Callsign | RSC92V |
|---|---|
| Flight time | 0h 30m |
| Altitude | 9000 |
| Route | LALTO |
| Aircraft | AT76/M-SDFGRY/LB1 |
Departure
| Time | 2026-04-28 22:50 |
|---|---|
| Airport | Tenerife Norte-Ciudad de La Laguna Airport (GCXO) |
Arrival
| Time | 2026-04-28 23:21 |
|---|---|
| Airport | Gran Canaria Airport (GCLP) |
| Time | Latitude | Longitude | Altitude | Speed | Heading |
|---|---|---|---|---|---|
| 2026-04-28 22:23 | 28.48788 | -16.35028 | 2072 ft | 0 kts | 21° |
| 2026-04-28 22:44 | 28.48787 | -16.35029 | 2073 ft | 1 kts | 21° |
| 2026-04-28 22:44 | 28.48766 | -16.35038 | 2073 ft | 4 kts | 21° |
| 2026-04-28 22:44 | 28.48732 | -16.35054 | 2074 ft | 6 kts | 21° |
| 2026-04-28 22:45 | 28.48710 | -16.35063 | 2077 ft | 1 kts | 6° |
| 2026-04-28 22:45 | 28.48702 | -16.35063 | 2078 ft | 2 kts | 0° |
| 2026-04-28 22:45 | 28.48686 | -16.35063 | 2079 ft | 3 kts | 345° |
| 2026-04-28 22:45 | 28.48671 | -16.35053 | 2079 ft | 4 kts | 316° |
| 2026-04-28 22:46 | 28.48668 | -16.35050 | 2080 ft | 1 kts | 314° |
| 2026-04-28 22:46 | 28.48679 | -16.35063 | 2079 ft | 3 kts | 314° |
| 2026-04-28 22:46 | 28.48695 | -16.35099 | 2079 ft | 8 kts | 291° |
| 2026-04-28 22:46 | 28.48716 | -16.35161 | 2077 ft | 8 kts | 290° |
| 2026-04-28 22:47 | 28.48735 | -16.35219 | 2076 ft | 8 kts | 290° |
| 2026-04-28 22:47 | 28.48754 | -16.35276 | 2074 ft | 8 kts | 290° |
| 2026-04-28 22:47 | 28.48754 | -16.35310 | 2075 ft | 2 kts | 229° |
| 2026-04-28 22:47 | 28.48695 | -16.35313 | 2078 ft | 13 kts | 136° |
| 2026-04-28 22:48 | 28.48638 | -16.35245 | 2081 ft | 11 kts | 146° |
| 2026-04-28 22:48 | 28.48614 | -16.35204 | 2082 ft | 0 kts | 112° |
| 2026-04-28 22:49 | 28.48597 | -16.35157 | 2083 ft | 26 kts | 112° |
| 2026-04-28 22:49 | 28.48464 | -16.34758 | 2074 ft | 83 kts | 111° |
| 2026-04-28 22:49 | 28.48189 | -16.33954 | 2045 ft | 133 kts | 113° |
| 2026-04-28 22:50 | 28.47850 | -16.32926 | 2381 ft | 137 kts | 107° |
| 2026-04-28 22:50 | 28.47482 | -16.31943 | 2956 ft | 132 kts | 107° |
| 2026-04-28 22:50 | 28.47113 | -16.30982 | 3305 ft | 138 kts | 105° |
| 2026-04-28 22:50 | 28.46718 | -16.29907 | 3396 ft | 156 kts | 111° |
| 2026-04-28 22:51 | 28.46282 | -16.28694 | 3463 ft | 177 kts | 110° |
| 2026-04-28 22:51 | 28.45849 | -16.27335 | 3636 ft | 187 kts | 110° |
| 2026-04-28 22:51 | 28.45324 | -16.25977 | 4003 ft | 189 kts | 115° |
| 2026-04-28 22:51 | 28.44757 | -16.24633 | 4394 ft | 187 kts | 115° |
| 2026-04-28 22:52 | 28.44201 | -16.23290 | 4743 ft | 189 kts | 114° |
| 2026-04-28 22:52 | 28.43665 | -16.21923 | 5069 ft | 190 kts | 114° |
| 2026-04-28 22:52 | 28.43121 | -16.20554 | 5404 ft | 190 kts | 114° |
| 2026-04-28 22:52 | 28.42576 | -16.19196 | 5711 ft | 191 kts | 114° |
| 2026-04-28 22:53 | 28.42016 | -16.17813 | 6004 ft | 193 kts | 114° |
| 2026-04-28 22:53 | 28.41454 | -16.16429 | 6322 ft | 194 kts | 114° |
| 2026-04-28 22:53 | 28.40885 | -16.15039 | 6626 ft | 194 kts | 114° |
| 2026-04-28 22:53 | 28.40320 | -16.13652 | 6921 ft | 194 kts | 114° |
| 2026-04-28 22:54 | 28.39748 | -16.12253 | 7158 ft | 197 kts | 114° |
| 2026-04-28 22:54 | 28.39171 | -16.10845 | 7459 ft | 197 kts | 114° |
| 2026-04-28 22:54 | 28.38589 | -16.09428 | 7694 ft | 200 kts | 114° |
| 2026-04-28 22:54 | 28.37995 | -16.07986 | 7932 ft | 202 kts | 114° |
| 2026-04-28 22:55 | 28.37404 | -16.06548 | 8206 ft | 202 kts | 114° |
| 2026-04-28 22:55 | 28.36809 | -16.05104 | 8465 ft | 202 kts | 114° |
| 2026-04-28 22:55 | 28.36212 | -16.03652 | 8735 ft | 202 kts | 114° |
| 2026-04-28 22:55 | 28.35612 | -16.02196 | 8936 ft | 207 kts | 114° |
| 2026-04-28 22:56 | 28.34984 | -16.00678 | 8994 ft | 218 kts | 115° |
| 2026-04-28 22:56 | 28.34323 | -15.99086 | 9027 ft | 229 kts | 114° |
| 2026-04-28 22:56 | 28.33623 | -15.97416 | 9037 ft | 238 kts | 114° |
| 2026-04-28 22:56 | 28.32908 | -15.95699 | 9043 ft | 244 kts | 115° |
| 2026-04-28 22:57 | 28.32174 | -15.93931 | 9047 ft | 249 kts | 114° |
| 2026-04-28 22:57 | 28.31430 | -15.92134 | 9047 ft | 253 kts | 114° |
| 2026-04-28 22:57 | 28.30676 | -15.90311 | 9046 ft | 257 kts | 114° |
| 2026-04-28 22:57 | 28.29920 | -15.88471 | 9041 ft | 259 kts | 114° |
| 2026-04-28 22:58 | 28.29156 | -15.86614 | 9043 ft | 260 kts | 114° |
| 2026-04-28 22:58 | 28.28390 | -15.84747 | 9040 ft | 261 kts | 114° |
| 2026-04-28 22:58 | 28.27603 | -15.82886 | 9045 ft | 259 kts | 120° |
| 2026-04-28 22:58 | 28.26360 | -15.81486 | 9042 ft | 258 kts | 147° |
| 2026-04-28 22:59 | 28.24822 | -15.80405 | 9044 ft | 259 kts | 149° |
| 2026-04-28 22:59 | 28.23257 | -15.79376 | 9043 ft | 260 kts | 150° |
| 2026-04-28 22:59 | 28.21681 | -15.78368 | 9042 ft | 261 kts | 151° |
| 2026-04-28 22:59 | 28.20091 | -15.77367 | 9045 ft | 262 kts | 151° |
| 2026-04-28 23:00 | 28.18499 | -15.76369 | 9045 ft | 262 kts | 151° |
| 2026-04-28 23:00 | 28.16881 | -15.75438 | 9041 ft | 260 kts | 159° |
| 2026-04-28 23:00 | 28.15336 | -15.74423 | 9041 ft | 259 kts | 134° |
| 2026-04-28 23:00 | 28.14498 | -15.72641 | 9042 ft | 259 kts | 100° |
| 2026-04-28 23:01 | 28.14632 | -15.70644 | 9045 ft | 258 kts | 68° |
| 2026-04-28 23:01 | 28.15627 | -15.68995 | 9049 ft | 253 kts | 46° |
| 2026-04-28 23:01 | 28.16859 | -15.67562 | 9039 ft | 254 kts | 44° |
| 2026-04-28 23:01 | 28.18131 | -15.66161 | 9046 ft | 255 kts | 42° |
| 2026-04-28 23:02 | 28.19418 | -15.64768 | 9039 ft | 256 kts | 41° |
| 2026-04-28 23:02 | 28.20712 | -15.63380 | 9041 ft | 254 kts | 45° |
| 2026-04-28 23:02 | 28.21550 | -15.61632 | 9043 ft | 258 kts | 77° |
| 2026-04-28 23:02 | 28.21414 | -15.59613 | 9040 ft | 262 kts | 110° |
| 2026-04-28 23:03 | 28.20391 | -15.57923 | 9047 ft | 261 kts | 133° |
| 2026-04-28 23:03 | 28.19376 | -15.56238 | 9036 ft | 260 kts | 108° |
| 2026-04-28 23:03 | 28.19173 | -15.54228 | 9046 ft | 257 kts | 89° |
| 2026-04-28 23:03 | 28.19181 | -15.52193 | 9042 ft | 259 kts | 88° |
| 2026-04-28 23:04 | 28.18878 | -15.50214 | 9040 ft | 258 kts | 116° |
| 2026-04-28 23:04 | 28.16687 | -15.46970 | 9034 ft | 261 kts | 130° |
| 2026-04-28 23:04 | 28.15501 | -15.45405 | 9037 ft | 262 kts | 131° |
| 2026-04-28 23:05 | 28.14299 | -15.43850 | 9043 ft | 262 kts | 131° |
| 2026-04-28 23:05 | 28.12976 | -15.42510 | 9041 ft | 258 kts | 151° |
| 2026-04-28 23:05 | 28.11364 | -15.41574 | 8946 ft | 265 kts | 154° |
| 2026-04-28 23:05 | 28.09671 | -15.40666 | 8695 ft | 270 kts | 156° |
| 2026-04-28 23:06 | 28.07965 | -15.39792 | 8454 ft | 267 kts | 156° |
| 2026-04-28 23:06 | 28.06276 | -15.38941 | 8203 ft | 264 kts | 156° |
| 2026-04-28 23:06 | 28.04598 | -15.38102 | 7966 ft | 262 kts | 156° |
| 2026-04-28 23:06 | 28.02950 | -15.37245 | 7709 ft | 258 kts | 149° |
| 2026-04-28 23:07 | 28.01744 | -15.35782 | 7468 ft | 256 kts | 115° |
| 2026-04-28 23:07 | 28.01443 | -15.33834 | 7231 ft | 252 kts | 82° |
| 2026-04-28 23:07 | 28.01801 | -15.31916 | 6990 ft | 247 kts | 76° |
| 2026-04-28 23:07 | 28.02004 | -15.29986 | 6748 ft | 248 kts | 84° |
| 2026-04-28 23:08 | 28.02103 | -15.28039 | 6504 ft | 248 kts | 86° |
| 2026-04-28 23:08 | 28.02182 | -15.26097 | 6234 ft | 248 kts | 85° |
| 2026-04-28 23:08 | 28.02058 | -15.24145 | 5863 ft | 251 kts | 100° |
| 2026-04-28 23:08 | 28.01670 | -15.22229 | 5488 ft | 255 kts | 102° |
| 2026-04-28 23:09 | 28.01231 | -15.20274 | 5109 ft | 256 kts | 105° |
| 2026-04-28 23:09 | 28.00315 | -15.18570 | 4720 ft | 259 kts | 137° |
| 2026-04-28 23:09 | 27.98704 | -15.17676 | 4348 ft | 262 kts | 170° |
| 2026-04-28 23:09 | 27.96913 | -15.17850 | 3979 ft | 259 kts | 200° |
| 2026-04-28 23:10 | 27.95228 | -15.18588 | 3607 ft | 261 kts | 205° |
| 2026-04-28 23:10 | 27.93553 | -15.19385 | 3240 ft | 261 kts | 205° |
| 2026-04-28 23:10 | 27.91889 | -15.20211 | 2866 ft | 261 kts | 206° |
| 2026-04-28 23:10 | 27.90243 | -15.21049 | 2561 ft | 257 kts | 206° |
| 2026-04-28 23:11 | 27.88638 | -15.21884 | 2326 ft | 252 kts | 206° |
| 2026-04-28 23:11 | 27.87082 | -15.22741 | 2065 ft | 245 kts | 212° |
| 2026-04-28 23:11 | 27.85720 | -15.23858 | 1804 ft | 239 kts | 219° |
| 2026-04-28 23:11 | 27.84277 | -15.24761 | 1569 ft | 235 kts | 206° |
| 2026-04-28 23:12 | 27.82788 | -15.25508 | 1389 ft | 233 kts | 204° |
| 2026-04-28 23:12 | 27.81301 | -15.26227 | 1224 ft | 231 kts | 204° |
| 2026-04-28 23:12 | 27.79838 | -15.26930 | 1141 ft | 227 kts | 204° |
| 2026-04-28 23:12 | 27.78359 | -15.27634 | 1082 ft | 233 kts | 203° |
| 2026-04-28 23:13 | 27.76868 | -15.28339 | 1072 ft | 232 kts | 203° |
| 2026-04-28 23:13 | 27.75387 | -15.29035 | 1073 ft | 230 kts | 203° |
| 2026-04-28 23:13 | 27.73904 | -15.29735 | 1062 ft | 234 kts | 203° |
| 2026-04-28 23:13 | 27.72393 | -15.30464 | 1079 ft | 238 kts | 207° |
| 2026-04-28 23:14 | 27.71214 | -15.31733 | 1062 ft | 237 kts | 244° |
| 2026-04-28 23:14 | 27.70917 | -15.33522 | 1067 ft | 233 kts | 280° |
| 2026-04-28 23:14 | 27.71390 | -15.35247 | 1066 ft | 231 kts | 293° |
| 2026-04-28 23:14 | 27.71934 | -15.36930 | 1062 ft | 224 kts | 293° |
| 2026-04-28 23:15 | 27.72480 | -15.38527 | 1073 ft | 209 kts | 300° |
| 2026-04-28 23:15 | 27.73466 | -15.39585 | 1074 ft | 191 kts | 339° |
| 2026-04-28 23:15 | 27.74665 | -15.40171 | 1058 ft | 185 kts | 338° |
| 2026-04-28 23:15 | 27.75796 | -15.40806 | 1067 ft | 178 kts | 335° |
| 2026-04-28 23:16 | 27.76871 | -15.41409 | 1061 ft | 172 kts | 336° |
| 2026-04-28 23:16 | 27.77938 | -15.42005 | 1064 ft | 166 kts | 335° |
| 2026-04-28 23:16 | 27.78950 | -15.42571 | 1061 ft | 163 kts | 335° |
| 2026-04-28 23:16 | 27.79972 | -15.43120 | 1068 ft | 162 kts | 336° |
| 2026-04-28 23:17 | 27.80979 | -15.43699 | 1099 ft | 162 kts | 332° |
| 2026-04-28 23:17 | 27.81645 | -15.44093 | 1144 ft | 156 kts | 341° |
| 2026-04-28 23:17 | 27.82684 | -15.43991 | 1096 ft | 158 kts | 28° |
| 2026-04-28 23:17 | 27.83622 | -15.43294 | 1007 ft | 160 kts | 31° |
| 2026-04-28 23:18 | 27.84522 | -15.42652 | 1017 ft | 143 kts | 30° |
| 2026-04-28 23:18 | 27.85335 | -15.42139 | 879 ft | 127 kts | 20° |
| 2026-04-28 23:18 | 27.86017 | -15.41757 | 832 ft | 101 kts | 22° |
| 2026-04-28 23:18 | 27.86648 | -15.41474 | 685 ft | 99 kts | 17° |
| 2026-04-28 23:19 | 27.87320 | -15.41209 | 754 ft | 103 kts | 19° |
| 2026-04-28 23:19 | 27.88032 | -15.40917 | 736 ft | 113 kts | 20° |
| 2026-04-28 23:19 | 27.88760 | -15.40579 | 710 ft | 112 kts | 19° |
| 2026-04-28 23:19 | 27.89487 | -15.40280 | 639 ft | 108 kts | 19° |
| 2026-04-28 23:20 | 27.90193 | -15.39971 | 502 ft | 111 kts | 21° |
| 2026-04-28 23:20 | 27.90923 | -15.39636 | 368 ft | 115 kts | 16° |
| 2026-04-28 23:20 | 27.91680 | -15.39311 | 200 ft | 115 kts | 19° |
| 2026-04-28 23:20 | 27.92376 | -15.38997 | 72 ft | 97 kts | 18° |
| 2026-04-28 23:21 | 27.92893 | -15.38789 | 57 ft | 45 kts | 20° |
| 2026-04-28 23:21 | 27.93151 | -15.38724 | 62 ft | 32 kts | 1° |
| 2026-04-28 23:21 | 27.93281 | -15.38737 | 67 ft | 0 kts | 352° |
| 2026-04-28 23:22 | 27.93287 | -15.38738 | 67 ft | 2 kts | 352° |
| 2026-04-28 23:23 | 27.93309 | -15.38742 | 68 ft | 4 kts | 352° |
| 2026-04-28 23:23 | 27.93344 | -15.38748 | 70 ft | 7 kts | 349° |
| 2026-04-28 23:23 | 27.93446 | -15.38741 | 72 ft | 23 kts | 22° |
| 2026-04-28 23:23 | 27.93657 | -15.38647 | 69 ft | 37 kts | 22° |
| 2026-04-28 23:24 | 27.93883 | -15.38546 | 73 ft | 30 kts | 21° |
| 2026-04-28 23:24 | 27.94013 | -15.38514 | 64 ft | 12 kts | 315° |
| 2026-04-28 23:24 | 27.94031 | -15.38577 | 70 ft | 7 kts | 285° |
| 2026-04-28 23:24 | 27.94041 | -15.38605 | 71 ft | 1 kts | 301° |
| 2026-04-28 23:25 | 27.94043 | -15.38610 | 72 ft | 0 kts | 301° |
| 2026-04-28 23:25 | 27.94060 | -15.38633 | 72 ft | 9 kts | 306° |
| 2026-04-28 23:25 | 27.94082 | -15.38691 | 81 ft | 6 kts | 290° |
| 2026-04-28 23:26 | 27.94083 | -15.38694 | 85 ft | 0 kts | 290° |